首页
METAR-TAF:

METAR-TAF

机场 :

Tofino, 不列颠哥伦比亚, 加拿大

纬度: 49-05N, 经度: 125-46W, 海拔: 24米

当前天气观测

该预报发布于9小时和20分钟前的01:00 UTC
风速9节,风向
温度 10°C
湿度 93%
气压 1013 hPa
能見度: 24.1公里
阴天层高于2000英尺

METAR: CYAZ 150100Z 10009KT 15SM RA OVC020 10/09 A2990 RMK NS8 LAST STFD OBS/NEXT 151500UTC SLP126

时间: 02:20 (10:20 UTC)

预报

该预报发布于16小时和42分钟前的17:38 UTC
预报有效从14日的 18点(UTC)到 15日的 01点(UTC)
风速5节,风向
能見度: 10公里
多云层高于6000英尺
多云层高于10000英尺
短暂存在
从 14日的 18点(UTC)到 14日的 20点(UTC)
能見度: 10公里
散云层高于3000英尺
阴天层高于6000英尺
小阵雨
从 14日的 2000点(UTC)
风速10节,风向东转东南,有时为20节阵风
能見度: 10公里
散云层高于2000英尺
阴天层高于6000英尺
小雨
短暂存在
从 14日的 20点(UTC)到 14日的 23点(UTC)
能見度: 8.0公里
多云层高于2000英尺
阴天层高于4000英尺
小雨, 轻雾
从 14日的 2300点(UTC)
风速12节,风向东转东南,有时为22节阵风
能見度: 9.7公里
散云层高于800英尺
阴天层高于2500英尺
小雨
短暂存在
从 14日的 23点(UTC)到 15日的 01点(UTC)
能見度: 4.8公里
多云层高于800英尺
阴天层高于1500英尺
小雨, 轻雾

TAF: CYAZ 141738Z 1418/1501 10005KT P6SM BKN060 BKN100 TEMPO 1418/1420 P6SM -SHRA SCT030 OVC060 FM142000 11010G20KT P6SM -RA SCT020 OVC060 TEMPO 1420/1423 5SM -RA BR BKN020 OVC040 FM142300 11012G22KT 6SM -RA SCT008 OVC025 TEMPO 1423/1501 3SM -RA BR BKN008 OVC015 RMK NXT FCST WILL BE ISSUED AT 151645Z

超过4000个机场的气象观测和天气预报(METAR&TAF报告)。

可查询的气象台以黄色和红色小点在地图上表示。

将鼠标移到小点上方,可查看气象台名称。

然后点击查看天气观测和预报。

如需切换地图:点击带黑十字的绿色按钮放大地图;点击带横线的绿色按钮缩小地图;或者点击绿色箭头查看邻近地区的地图。


METAR-TAF: